sensor_id;sensor_type;location;lat;lon;timestamp;temperature;humidity
68804;SHT31;55787;52.678;13.314;2022-07-23T00:01:23;15.14;89.04
68804;SHT31;55787;52.678;13.314;2022-07-23T00:03:53;15.07;89.29
68804;SHT31;55787;52.678;13.314;2022-07-23T00:06:21;15.04;89.26
68804;SHT31;55787;52.678;13.314;2022-07-23T00:08:48;15.00;89.38
68804;SHT31;55787;52.678;13.314;2022-07-23T00:11:14;14.96;89.71
68804;SHT31;55787;52.678;13.314;2022-07-23T00:13:41;14.96;89.61
68804;SHT31;55787;52.678;13.314;2022-07-23T00:16:08;14.95;89.70
68804;SHT31;55787;52.678;13.314;2022-07-23T00:18:34;14.92;89.66
68804;SHT31;55787;52.678;13.314;2022-07-23T00:21:01;14.86;89.88
68804;SHT31;55787;52.678;13.314;2022-07-23T00:23:27;14.81;90.21
68804;SHT31;55787;52.678;13.314;2022-07-23T00:25:55;14.78;90.37
68804;SHT31;55787;52.678;13.314;2022-07-23T00:28:21;14.75;90.49
68804;SHT31;55787;52.678;13.314;2022-07-23T00:30:48;14.79;90.38
68804;SHT31;55787;52.678;13.314;2022-07-23T00:33:14;14.75;90.20
68804;SHT31;55787;52.678;13.314;2022-07-23T00:35:42;14.75;90.22
68804;SHT31;55787;52.678;13.314;2022-07-23T00:38:10;14.71;90.17
68804;SHT31;55787;52.678;13.314;2022-07-23T00:40:37;14.67;90.33
68804;SHT31;55787;52.678;13.314;2022-07-23T00:43:04;14.61;90.42
68804;SHT31;55787;52.678;13.314;2022-07-23T00:45:31;14.55;90.47
68804;SHT31;55787;52.678;13.314;2022-07-23T00:47:58;14.48;90.50
68804;SHT31;55787;52.678;13.314;2022-07-23T00:50:25;14.44;90.66
68804;SHT31;55787;52.678;13.314;2022-07-23T00:52:52;14.37;90.70
68804;SHT31;55787;52.678;13.314;2022-07-23T00:55:19;14.32;90.73
68804;SHT31;55787;52.678;13.314;2022-07-23T00:57:46;14.30;91.23
68804;SHT31;55787;52.678;13.314;2022-07-23T01:00:14;14.25;91.61
68804;SHT31;55787;52.678;13.314;2022-07-23T01:02:41;14.21;91.48
68804;SHT31;55787;52.678;13.314;2022-07-23T01:05:08;14.18;91.68
68804;SHT31;55787;52.678;13.314;2022-07-23T01:07:35;14.14;91.65
68804;SHT31;55787;52.678;13.314;2022-07-23T01:10:03;14.11;91.90
68804;SHT31;55787;52.678;13.314;2022-07-23T01:12:30;14.10;92.14
68804;SHT31;55787;52.678;13.314;2022-07-23T01:15:00;14.09;91.73
68804;SHT31;55787;52.678;13.314;2022-07-23T01:17:27;14.07;91.89
68804;SHT31;55787;52.678;13.314;2022-07-23T01:19:54;14.06;91.92
68804;SHT31;55787;52.678;13.314;2022-07-23T01:22:21;14.04;92.33
68804;SHT31;55787;52.678;13.314;2022-07-23T01:24:47;14.03;92.23
68804;SHT31;55787;52.678;13.314;2022-07-23T01:27:14;14.03;92.28
68804;SHT31;55787;52.678;13.314;2022-07-23T01:29:40;14.03;92.21
68804;SHT31;55787;52.678;13.314;2022-07-23T01:32:07;14.00;92.16
68804;SHT31;55787;52.678;13.314;2022-07-23T01:34:33;13.99;92.51
68804;SHT31;55787;52.678;13.314;2022-07-23T01:37:00;13.97;92.36
68804;SHT31;55787;52.678;13.314;2022-07-23T01:39:26;13.93;92.78
68804;SHT31;55787;52.678;13.314;2022-07-23T01:41:53;13.89;93.10
68804;SHT31;55787;52.678;13.314;2022-07-23T01:44:20;13.86;92.91
68804;SHT31;55787;52.678;13.314;2022-07-23T01:46:46;13.82;93.16
68804;SHT31;55787;52.678;13.314;2022-07-23T01:49:12;13.80;93.08
68804;SHT31;55787;52.678;13.314;2022-07-23T01:51:40;13.76;93.16
68804;SHT31;55787;52.678;13.314;2022-07-23T01:54:30;13.74;93.23
68804;SHT31;55787;52.678;13.314;2022-07-23T01:56:57;13.74;93.34
68804;SHT31;55787;52.678;13.314;2022-07-23T01:59:25;13.74;93.42
68804;SHT31;55787;52.678;13.314;2022-07-23T02:01:52;13.82;93.99
68804;SHT31;55787;52.678;13.314;2022-07-23T02:04:22;13.83;93.75
68804;SHT31;55787;52.678;13.314;2022-07-23T02:06:49;13.89;93.67
68804;SHT31;55787;52.678;13.314;2022-07-23T02:09:16;13.94;93.42
68804;SHT31;55787;52.678;13.314;2022-07-23T02:11:43;14.00;93.27
68804;SHT31;55787;52.678;13.314;2022-07-23T02:14:09;14.03;93.15
68804;SHT31;55787;52.678;13.314;2022-07-23T02:16:36;14.11;92.99
68804;SHT31;55787;52.678;13.314;2022-07-23T02:19:03;14.17;92.86
68804;SHT31;55787;52.678;13.314;2022-07-23T02:21:30;14.21;92.56
68804;SHT31;55787;52.678;13.314;2022-07-23T02:23:57;14.24;92.29
68804;SHT31;55787;52.678;13.314;2022-07-23T02:26:24;14.30;91.65
68804;SHT31;55787;52.678;13.314;2022-07-23T02:28:50;14.34;91.52
68804;SHT31;55787;52.678;13.314;2022-07-23T02:31:19;14.37;91.09
68804;SHT31;55787;52.678;13.314;2022-07-23T02:33:46;14.37;90.98
68804;SHT31;55787;52.678;13.314;2022-07-23T02:36:12;14.40;90.70
68804;SHT31;55787;52.678;13.314;2022-07-23T02:38:39;14.41;90.45
68804;SHT31;55787;52.678;13.314;2022-07-23T02:41:05;14.41;90.41
68804;SHT31;55787;52.678;13.314;2022-07-23T02:43:32;14.41;90.35
68804;SHT31;55787;52.678;13.314;2022-07-23T02:45:58;14.41;90.27
68804;SHT31;55787;52.678;13.314;2022-07-23T02:48:24;14.41;90.12
68804;SHT31;55787;52.678;13.314;2022-07-23T02:50:51;14.38;89.88
68804;SHT31;55787;52.678;13.314;2022-07-23T02:53:18;14.40;89.87
68804;SHT31;55787;52.678;13.314;2022-07-23T02:55:45;14.37;90.07
68804;SHT31;55787;52.678;13.314;2022-07-23T02:58:11;14.37;89.74
68804;SHT31;55787;52.678;13.314;2022-07-23T03:00:38;14.34;89.70
68804;SHT31;55787;52.678;13.314;2022-07-23T03:03:04;14.34;89.84
68804;SHT31;55787;52.678;13.314;2022-07-23T03:05:31;14.35;89.67
68804;SHT31;55787;52.678;13.314;2022-07-23T03:07:57;14.34;89.50
68804;SHT31;55787;52.678;13.314;2022-07-23T03:10:24;14.35;89.40
68804;SHT31;55787;52.678;13.314;2022-07-23T03:12:51;14.32;89.08
68804;SHT31;55787;52.678;13.314;2022-07-23T03:15:17;14.31;89.15
68804;SHT31;55787;52.678;13.314;2022-07-23T03:17:44;14.30;89.21
68804;SHT31;55787;52.678;13.314;2022-07-23T03:20:10;14.32;89.36
68804;SHT31;55787;52.678;13.314;2022-07-23T03:22:37;14.34;89.12
68804;SHT31;55787;52.678;13.314;2022-07-23T03:25:04;14.38;89.17
68804;SHT31;55787;52.678;13.314;2022-07-23T03:27:31;14.38;88.88
68804;SHT31;55787;52.678;13.314;2022-07-23T03:29:59;14.40;88.66
68804;SHT31;55787;52.678;13.314;2022-07-23T03:32:26;14.37;88.45
68804;SHT31;55787;52.678;13.314;2022-07-23T03:34:53;14.38;88.09
68804;SHT31;55787;52.678;13.314;2022-07-23T03:37:20;14.42;88.23
68804;SHT31;55787;52.678;13.314;2022-07-23T03:39:47;14.45;88.03
68804;SHT31;55787;52.678;13.314;2022-07-23T03:42:14;14.58;87.33
68804;SHT31;55787;52.678;13.314;2022-07-23T03:44:40;14.65;86.44
68804;SHT31;55787;52.678;13.314;2022-07-23T03:47:07;14.67;85.82
68804;SHT31;55787;52.678;13.314;2022-07-23T03:49:33;14.72;85.44
68804;SHT31;55787;52.678;13.314;2022-07-23T03:52:00;14.76;85.15
68804;SHT31;55787;52.678;13.314;2022-07-23T03:54:27;14.82;84.84
68804;SHT31;55787;52.678;13.314;2022-07-23T03:56:54;14.85;85.03
68804;SHT31;55787;52.678;13.314;2022-07-23T03:59:20;14.86;85.20
68804;SHT31;55787;52.678;13.314;2022-07-23T04:01:50;14.92;84.87
68804;SHT31;55787;52.678;13.314;2022-07-23T04:04:16;14.96;84.16
68804;SHT31;55787;52.678;13.314;2022-07-23T04:06:43;14.95;84.30
68804;SHT31;55787;52.678;13.314;2022-07-23T04:09:09;15.00;85.24
68804;SHT31;55787;52.678;13.314;2022-07-23T04:11:36;15.00;84.61
68804;SHT31;55787;52.678;13.314;2022-07-23T04:14:02;15.03;84.33
68804;SHT31;55787;52.678;13.314;2022-07-23T04:16:29;15.02;84.41
68804;SHT31;55787;52.678;13.314;2022-07-23T04:18:57;15.02;84.00
68804;SHT31;55787;52.678;13.314;2022-07-23T04:21:24;15.03;84.36
68804;SHT31;55787;52.678;13.314;2022-07-23T04:23:51;15.04;84.98
68804;SHT31;55787;52.678;13.314;2022-07-23T04:26:17;15.03;85.13
68804;SHT31;55787;52.678;13.314;2022-07-23T04:28:44;14.99;87.01
68804;SHT31;55787;52.678;13.314;2022-07-23T04:31:10;14.95;87.40
68804;SHT31;55787;52.678;13.314;2022-07-23T04:33:37;14.92;90.09
68804;SHT31;55787;52.678;13.314;2022-07-23T04:36:04;14.91;91.41
68804;SHT31;55787;52.678;13.314;2022-07-23T04:38:30;14.89;91.09
68804;SHT31;55787;52.678;13.314;2022-07-23T04:40:59;14.86;91.13
68804;SHT31;55787;52.678;13.314;2022-07-23T04:43:25;14.78;90.22
68804;SHT31;55787;52.678;13.314;2022-07-23T04:45:51;14.69;89.12
68804;SHT31;55787;52.678;13.314;2022-07-23T04:48:18;14.65;89.77
68804;SHT31;55787;52.678;13.314;2022-07-23T04:50:46;14.67;91.22
68804;SHT31;55787;52.678;13.314;2022-07-23T04:53:12;14.64;90.99
68804;SHT31;55787;52.678;13.314;2022-07-23T04:55:39;14.68;92.25
68804;SHT31;55787;52.678;13.314;2022-07-23T04:58:05;14.71;92.54
68804;SHT31;55787;52.678;13.314;2022-07-23T05:00:32;14.71;93.44
68804;SHT31;55787;52.678;13.314;2022-07-23T05:02:59;14.67;92.21
68804;SHT31;55787;52.678;13.314;2022-07-23T05:05:25;14.67;91.93
68804;SHT31;55787;52.678;13.314;2022-07-23T05:07:52;14.67;91.92
68804;SHT31;55787;52.678;13.314;2022-07-23T05:10:18;14.69;92.68
68804;SHT31;55787;52.678;13.314;2022-07-23T05:12:45;14.72;93.35
68804;SHT31;55787;52.678;13.314;2022-07-23T05:15:11;14.71;93.67
68804;SHT31;55787;52.678;13.314;2022-07-23T05:17:38;14.69;93.61
68804;SHT31;55787;52.678;13.314;2022-07-23T05:20:04;14.72;93.34
68804;SHT31;55787;52.678;13.314;2022-07-23T05:22:31;14.72;93.61
68804;SHT31;55787;52.678;13.314;2022-07-23T05:24:58;14.73;93.11
68804;SHT31;55787;52.678;13.314;2022-07-23T05:27:24;14.73;92.83
68804;SHT31;55787;52.678;13.314;2022-07-23T05:29:51;14.79;92.35
68804;SHT31;55787;52.678;13.314;2022-07-23T05:32:17;14.85;92.75
68804;SHT31;55787;52.678;13.314;2022-07-23T05:34:44;14.92;92.05
68804;SHT31;55787;52.678;13.314;2022-07-23T05:37:10;14.96;91.23
68804;SHT31;55787;52.678;13.314;2022-07-23T05:39:37;14.99;91.40
68804;SHT31;55787;52.678;13.314;2022-07-23T05:42:03;15.07;92.42
68804;SHT31;55787;52.678;13.314;2022-07-23T05:44:30;15.07;92.50
68804;SHT31;55787;52.678;13.314;2022-07-23T05:47:01;15.10;90.90
68804;SHT31;55787;52.678;13.314;2022-07-23T05:49:27;15.10;91.00
68804;SHT31;55787;52.678;13.314;2022-07-23T05:51:54;15.14;91.51
68804;SHT31;55787;52.678;13.314;2022-07-23T05:54:20;15.19;92.05
68804;SHT31;55787;52.678;13.314;2022-07-23T05:56:47;15.23;91.64
68804;SHT31;55787;52.678;13.314;2022-07-23T05:59:13;15.22;92.66
68804;SHT31;55787;52.678;13.314;2022-07-23T06:01:41;15.16;90.92
68804;SHT31;55787;52.678;13.314;2022-07-23T06:04:08;15.14;91.44
68804;SHT31;55787;52.678;13.314;2022-07-23T06:06:35;15.06;90.63
68804;SHT31;55787;52.678;13.314;2022-07-23T06:09:01;15.04;91.81
68804;SHT31;55787;52.678;13.314;2022-07-23T06:11:28;15.04;92.85
68804;SHT31;55787;52.678;13.314;2022-07-23T06:13:55;15.03;93.40
68804;SHT31;55787;52.678;13.314;2022-07-23T06:16:22;15.02;93.01
68804;SHT31;55787;52.678;13.314;2022-07-23T06:18:48;15.07;93.74
68804;SHT31;55787;52.678;13.314;2022-07-23T06:21:15;15.12;94.07
68804;SHT31;55787;52.678;13.314;2022-07-23T06:24:01;15.22;93.84
68804;SHT31;55787;52.678;13.314;2022-07-23T06:26:28;15.27;93.58
68804;SHT31;55787;52.678;13.314;2022-07-23T06:28:54;15.33;93.21
68804;SHT31;55787;52.678;13.314;2022-07-23T06:31:21;15.34;91.83
68804;SHT31;55787;52.678;13.314;2022-07-23T06:33:47;15.41;91.95
68804;SHT31;55787;52.678;13.314;2022-07-23T06:36:14;15.47;92.50
68804;SHT31;55787;52.678;13.314;2022-07-23T06:38:40;15.51;91.95
68804;SHT31;55787;52.678;13.314;2022-07-23T06:41:07;15.57;91.70
68804;SHT31;55787;52.678;13.314;2022-07-23T06:43:33;15.58;90.04
68804;SHT31;55787;52.678;13.314;2022-07-23T06:46:00;15.60;89.61
68804;SHT31;55787;52.678;13.314;2022-07-23T06:48:26;15.64;90.97
68804;SHT31;55787;52.678;13.314;2022-07-23T06:50:54;15.68;91.01
68804;SHT31;55787;52.678;13.314;2022-07-23T06:53:21;15.63;91.33
68804;SHT31;55787;52.678;13.314;2022-07-23T06:55:48;15.63;90.83
68804;SHT31;55787;52.678;13.314;2022-07-23T06:58:14;15.58;91.19
68804;SHT31;55787;52.678;13.314;2022-07-23T07:00:41;15.57;90.96
68804;SHT31;55787;52.678;13.314;2022-07-23T07:03:07;15.60;91.49
68804;SHT31;55787;52.678;13.314;2022-07-23T07:05:34;15.60;92.43
68804;SHT31;55787;52.678;13.314;2022-07-23T07:08:00;15.67;91.78
68804;SHT31;55787;52.678;13.314;2022-07-23T07:10:27;15.74;91.82
68804;SHT31;55787;52.678;13.314;2022-07-23T07:12:53;15.82;92.24
68804;SHT31;55787;52.678;13.314;2022-07-23T07:15:20;15.95;91.53
68804;SHT31;55787;52.678;13.314;2022-07-23T07:17:46;16.06;90.66
68804;SHT31;55787;52.678;13.314;2022-07-23T07:20:13;16.05;90.84
68804;SHT31;55787;52.678;13.314;2022-07-23T07:22:40;16.05;91.44
68804;SHT31;55787;52.678;13.314;2022-07-23T07:25:07;16.08;91.14
68804;SHT31;55787;52.678;13.314;2022-07-23T07:27:34;16.08;89.00
68804;SHT31;55787;52.678;13.314;2022-07-23T07:30:02;16.15;89.99
68804;SHT31;55787;52.678;13.314;2022-07-23T07:32:29;16.22;89.18
68804;SHT31;55787;52.678;13.314;2022-07-23T07:35:16;16.36;88.91
68804;SHT31;55787;52.678;13.314;2022-07-23T07:37:42;16.49;88.52
68804;SHT31;55787;52.678;13.314;2022-07-23T07:40:09;16.57;86.69
68804;SHT31;55787;52.678;13.314;2022-07-23T07:42:47;16.77;87.78
68804;SHT31;55787;52.678;13.314;2022-07-23T07:45:14;16.87;85.20
68804;SHT31;55787;52.678;13.314;2022-07-23T07:47:41;16.97;85.94
68804;SHT31;55787;52.678;13.314;2022-07-23T07:50:09;17.12;83.84
68804;SHT31;55787;52.678;13.314;2022-07-23T07:52:37;17.28;82.66
68804;SHT31;55787;52.678;13.314;2022-07-23T07:55:05;17.38;84.61
68804;SHT31;55787;52.678;13.314;2022-07-23T07:57:33;17.49;83.14
68804;SHT31;55787;52.678;13.314;2022-07-23T07:59:59;18.50;77.49
68804;SHT31;55787;52.678;13.314;2022-07-23T08:02:45;20.57;68.49
68804;SHT31;55787;52.678;13.314;2022-07-23T08:05:13;20.31;69.69
68804;SHT31;55787;52.678;13.314;2022-07-23T08:07:40;19.85;71.71
68804;SHT31;55787;52.678;13.314;2022-07-23T08:10:08;19.73;75.65
68804;SHT31;55787;52.678;13.314;2022-07-23T08:12:43;20.94;73.19
68804;SHT31;55787;52.678;13.314;2022-07-23T08:15:14;22.81;64.37
68804;SHT31;55787;52.678;13.314;2022-07-23T08:17:42;24.28;61.95
68804;SHT31;55787;52.678;13.314;2022-07-23T08:20:11;25.87;56.01
68804;SHT31;55787;52.678;13.314;2022-07-23T08:22:49;24.54;56.17
68804;SHT31;55787;52.678;13.314;2022-07-23T08:25:21;25.65;56.12
68804;SHT31;55787;52.678;13.314;2022-07-23T08:27:48;25.98;53.54
68804;SHT31;55787;52.678;13.314;2022-07-23T08:30:15;25.54;55.04
68804;SHT31;55787;52.678;13.314;2022-07-23T08:35:16;26.45;50.90
68804;SHT31;55787;52.678;13.314;2022-07-23T08:37:43;27.00;51.31
68804;SHT31;55787;52.678;13.314;2022-07-23T08:40:10;27.46;49.26
68804;SHT31;55787;52.678;13.314;2022-07-23T08:42:37;27.61;50.38
68804;SHT31;55787;52.678;13.314;2022-07-23T08:45:06;27.69;49.64
68804;SHT31;55787;52.678;13.314;2022-07-23T08:47:33;28.10;47.54
68804;SHT31;55787;52.678;13.314;2022-07-23T08:50:01;27.12;49.38
68804;SHT31;55787;52.678;13.314;2022-07-23T08:52:27;28.03;47.45
68804;SHT31;55787;52.678;13.314;2022-07-23T08:54:56;28.24;47.77
68804;SHT31;55787;52.678;13.314;2022-07-23T08:57:23;27.15;48.22
68804;SHT31;55787;52.678;13.314;2022-07-23T08:59:49;26.26;51.03
68804;SHT31;55787;52.678;13.314;2022-07-23T09:02:16;25.51;54.94
68804;SHT31;55787;52.678;13.314;2022-07-23T09:04:42;25.16;54.23
68804;SHT31;55787;52.678;13.314;2022-07-23T09:07:09;24.72;53.57
68804;SHT31;55787;52.678;13.314;2022-07-23T09:09:35;25.24;52.51
68804;SHT31;55787;52.678;13.314;2022-07-23T09:12:07;27.27;51.46
68804;SHT31;55787;52.678;13.314;2022-07-23T09:14:42;27.21;48.89
68804;SHT31;55787;52.678;13.314;2022-07-23T09:17:14;27.24;50.29
68804;SHT31;55787;52.678;13.314;2022-07-23T09:19:41;28.13;48.40
68804;SHT31;55787;52.678;13.314;2022-07-23T09:22:23;28.54;46.99
68804;SHT31;55787;52.678;13.314;2022-07-23T09:25:11;29.56;43.55
68804;SHT31;55787;52.678;13.314;2022-07-23T09:27:57;30.00;42.80
68804;SHT31;55787;52.678;13.314;2022-07-23T09:30:25;29.81;42.28
68804;SHT31;55787;52.678;13.314;2022-07-23T09:33:11;29.08;44.56
68804;SHT31;55787;52.678;13.314;2022-07-23T09:38:15;30.29;42.22
68804;SHT31;55787;52.678;13.314;2022-07-23T09:40:43;30.63;41.48
68804;SHT31;55787;52.678;13.314;2022-07-23T09:43:10;28.79;45.19
68804;SHT31;55787;52.678;13.314;2022-07-23T09:45:37;28.54;44.32
68804;SHT31;55787;52.678;13.314;2022-07-23T09:48:16;27.41;45.05
68804;SHT31;55787;52.678;13.314;2022-07-23T09:50:44;25.71;46.53
68804;SHT31;55787;52.678;13.314;2022-07-23T09:53:25;24.39;52.65
68804;SHT31;55787;52.678;13.314;2022-07-23T09:55:57;24.92;53.39
68804;SHT31;55787;52.678;13.314;2022-07-23T09:58:25;24.99;54.60
68804;SHT31;55787;52.678;13.314;2022-07-23T10:00:53;25.16;51.17
68804;SHT31;55787;52.678;13.314;2022-07-23T10:03:20;24.71;51.83
68804;SHT31;55787;52.678;13.314;2022-07-23T10:05:48;27.14;48.61
68804;SHT31;55787;52.678;13.314;2022-07-23T10:08:17;29.11;44.83
68804;SHT31;55787;52.678;13.314;2022-07-23T10:10:46;29.90;43.28
68804;SHT31;55787;52.678;13.314;2022-07-23T10:13:14;30.07;38.45
68804;SHT31;55787;52.678;13.314;2022-07-23T10:15:47;29.23;42.30
68804;SHT31;55787;52.678;13.314;2022-07-23T10:18:13;27.44;45.71
68804;SHT31;55787;52.678;13.314;2022-07-23T10:20:40;27.46;47.19
68804;SHT31;55787;52.678;13.314;2022-07-23T10:23:19;28.63;43.87
68804;SHT31;55787;52.678;13.314;2022-07-23T10:25:57;28.92;39.79
68804;SHT31;55787;52.678;13.314;2022-07-23T10:31:35;30.49;40.06
68804;SHT31;55787;52.678;13.314;2022-07-23T10:37:16;29.06;41.57
68804;SHT31;55787;52.678;13.314;2022-07-23T10:39:47;29.64;43.28
68804;SHT31;55787;52.678;13.314;2022-07-23T10:42:16;30.61;39.25
68804;SHT31;55787;52.678;13.314;2022-07-23T10:44:48;31.30;37.46
68804;SHT31;55787;52.678;13.314;2022-07-23T10:47:41;32.28;36.85
68804;SHT31;55787;52.678;13.314;2022-07-23T10:50:29;29.47;40.91
68804;SHT31;55787;52.678;13.314;2022-07-23T10:53:12;29.54;36.80
68804;SHT31;55787;52.678;13.314;2022-07-23T10:55:42;28.98;38.81
68804;SHT31;55787;52.678;13.314;2022-07-23T10:58:10;26.74;42.72
68804;SHT31;55787;52.678;13.314;2022-07-23T11:00:37;26.90;45.01
68804;SHT31;55787;52.678;13.314;2022-07-23T11:03:32;27.14;45.84
68804;SHT31;55787;52.678;13.314;2022-07-23T11:05:59;27.07;44.74
68804;SHT31;55787;52.678;13.314;2022-07-23T11:08:26;27.99;44.59
68804;SHT31;55787;52.678;13.314;2022-07-23T11:13:28;26.45;44.37
68804;SHT31;55787;52.678;13.314;2022-07-23T11:24:00;30.58;40.50
68804;SHT31;55787;52.678;13.314;2022-07-23T11:29:42;29.03;41.78
68804;SHT31;55787;52.678;13.314;2022-07-23T11:32:23;27.49;44.14
68804;SHT31;55787;52.678;13.314;2022-07-23T11:34:51;27.51;45.92
68804;SHT31;55787;52.678;13.314;2022-07-23T11:39:58;28.45;42.57
68804;SHT31;55787;52.678;13.314;2022-07-23T11:42:25;28.47;43.04
68804;SHT31;55787;52.678;13.314;2022-07-23T11:44:56;30.04;39.67
68804;SHT31;55787;52.678;13.314;2022-07-23T11:47:24;30.20;38.24
68804;SHT31;55787;52.678;13.314;2022-07-23T11:49:53;28.40;39.56
68804;SHT31;55787;52.678;13.314;2022-07-23T11:52:20;28.41;41.46
68804;SHT31;55787;52.678;13.314;2022-07-23T11:54:55;27.72;43.67
68804;SHT31;55787;52.678;13.314;2022-07-23T11:57:30;27.30;45.96
68804;SHT31;55787;52.678;13.314;2022-07-23T12:00:03;27.42;46.18
68804;SHT31;55787;52.678;13.314;2022-07-23T12:02:32;27.56;45.39
68804;SHT31;55787;52.678;13.314;2022-07-23T12:04:58;28.39;43.77
68804;SHT31;55787;52.678;13.314;2022-07-23T12:10:10;29.88;37.23
68804;SHT31;55787;52.678;13.314;2022-07-23T12:12:41;30.36;39.99
68804;SHT31;55787;52.678;13.314;2022-07-23T12:15:09;29.69;36.53
68804;SHT31;55787;52.678;13.314;2022-07-23T12:17:38;30.73;38.67
68804;SHT31;55787;52.678;13.314;2022-07-23T12:20:08;31.68;36.65
68804;SHT31;55787;52.678;13.314;2022-07-23T12:22:43;31.77;37.46
68804;SHT31;55787;52.678;13.314;2022-07-23T12:25:13;30.66;37.73
68804;SHT31;55787;52.678;13.314;2022-07-23T12:27:39;27.90;40.81
68804;SHT31;55787;52.678;13.314;2022-07-23T12:30:23;27.66;41.14
68804;SHT31;55787;52.678;13.314;2022-07-23T12:32:56;27.73;41.87
68804;SHT31;55787;52.678;13.314;2022-07-23T12:35:39;28.96;40.45
68804;SHT31;55787;52.678;13.314;2022-07-23T12:38:13;30.00;40.11
68804;SHT31;55787;52.678;13.314;2022-07-23T12:40:44;30.20;38.09
68804;SHT31;55787;52.678;13.314;2022-07-23T12:43:19;29.22;40.30
68804;SHT31;55787;52.678;13.314;2022-07-23T12:53:27;27.86;42.51
68804;SHT31;55787;52.678;13.314;2022-07-23T12:58:50;30.14;40.17
68804;SHT31;55787;52.678;13.314;2022-07-23T13:03:58;26.94;41.60
68804;SHT31;55787;52.678;13.314;2022-07-23T13:06:28;28.55;41.20
68804;SHT31;55787;52.678;13.314;2022-07-23T13:08:56;29.18;39.43
68804;SHT31;55787;52.678;13.314;2022-07-23T13:11:23;30.11;37.35
68804;SHT31;55787;52.678;13.314;2022-07-23T13:13:50;28.72;38.48
68804;SHT31;55787;52.678;13.314;2022-07-23T13:16:17;29.76;38.19
68804;SHT31;55787;52.678;13.314;2022-07-23T13:18:46;29.88;38.19
68804;SHT31;55787;52.678;13.314;2022-07-23T13:21:14;29.12;39.41
68804;SHT31;55787;52.678;13.314;2022-07-23T13:23:43;28.27;40.81
68804;SHT31;55787;52.678;13.314;2022-07-23T13:26:10;27.76;43.26
68804;SHT31;55787;52.678;13.314;2022-07-23T13:28:36;27.48;43.18
68804;SHT31;55787;52.678;13.314;2022-07-23T13:31:03;27.97;39.53
68804;SHT31;55787;52.678;13.314;2022-07-23T13:33:29;27.75;41.21
68804;SHT31;55787;52.678;13.314;2022-07-23T13:35:56;28.14;38.10
68804;SHT31;55787;52.678;13.314;2022-07-23T13:38:22;28.50;37.71
68804;SHT31;55787;52.678;13.314;2022-07-23T13:40:50;28.43;38.54
68804;SHT31;55787;52.678;13.314;2022-07-23T13:43:20;27.72;40.43
68804;SHT31;55787;52.678;13.314;2022-07-23T13:45:49;27.42;41.62
68804;SHT31;55787;52.678;13.314;2022-07-23T13:48:17;27.14;43.05
68804;SHT31;55787;52.678;13.314;2022-07-23T13:50:45;26.94;42.93
68804;SHT31;55787;52.678;13.314;2022-07-23T13:53:15;26.90;43.59
68804;SHT31;55787;52.678;13.314;2022-07-23T13:55:43;27.03;42.46
68804;SHT31;55787;52.678;13.314;2022-07-23T13:58:15;27.04;42.75
68804;SHT31;55787;52.678;13.314;2022-07-23T14:00:47;27.01;42.05
68804;SHT31;55787;52.678;13.314;2022-07-23T14:03:20;27.12;40.71
68804;SHT31;55787;52.678;13.314;2022-07-23T14:05:50;26.83;39.70
68804;SHT31;55787;52.678;13.314;2022-07-23T14:08:17;26.90;40.05
68804;SHT31;55787;52.678;13.314;2022-07-23T14:10:47;26.55;39.86
68804;SHT31;55787;52.678;13.314;2022-07-23T14:13:14;26.52;40.00
68804;SHT31;55787;52.678;13.314;2022-07-23T14:15:42;26.83;42.72
68804;SHT31;55787;52.678;13.314;2022-07-23T14:18:08;27.15;40.43
68804;SHT31;55787;52.678;13.314;2022-07-23T14:20:36;27.55;39.77
68804;SHT31;55787;52.678;13.314;2022-07-23T14:23:03;27.82;41.70
68804;SHT31;55787;52.678;13.314;2022-07-23T14:25:31;28.02;38.80
68804;SHT31;55787;52.678;13.314;2022-07-23T14:27:59;28.26;40.41
68804;SHT31;55787;52.678;13.314;2022-07-23T14:30:25;27.70;40.72
68804;SHT31;55787;52.678;13.314;2022-07-23T14:32:59;27.30;40.69
68804;SHT31;55787;52.678;13.314;2022-07-23T14:35:26;26.66;42.98
68804;SHT31;55787;52.678;13.314;2022-07-23T14:37:52;26.47;43.03
68804;SHT31;55787;52.678;13.314;2022-07-23T14:40:21;26.31;40.99
68804;SHT31;55787;52.678;13.314;2022-07-23T14:42:48;26.57;41.41
68804;SHT31;55787;52.678;13.314;2022-07-23T14:45:15;26.56;42.03
68804;SHT31;55787;52.678;13.314;2022-07-23T14:47:44;26.77;40.60
68804;SHT31;55787;52.678;13.314;2022-07-23T14:50:12;26.77;38.90
68804;SHT31;55787;52.678;13.314;2022-07-23T14:52:39;27.00;40.60
68804;SHT31;55787;52.678;13.314;2022-07-23T14:55:06;26.87;41.63
68804;SHT31;55787;52.678;13.314;2022-07-23T14:57:33;26.83;40.55
68804;SHT31;55787;52.678;13.314;2022-07-23T15:00:00;26.09;39.51
68804;SHT31;55787;52.678;13.314;2022-07-23T15:02:26;25.92;41.41
68804;SHT31;55787;52.678;13.314;2022-07-23T15:04:53;25.63;43.68
68804;SHT31;55787;52.678;13.314;2022-07-23T15:07:19;25.38;43.94
68804;SHT31;55787;52.678;13.314;2022-07-23T15:09:46;25.05;45.50
68804;SHT31;55787;52.678;13.314;2022-07-23T15:12:13;25.02;44.60
68804;SHT31;55787;52.678;13.314;2022-07-23T15:14:40;25.23;44.87
68804;SHT31;55787;52.678;13.314;2022-07-23T15:17:06;25.68;43.18
68804;SHT31;55787;52.678;13.314;2022-07-23T15:19:33;25.75;41.89
68804;SHT31;55787;52.678;13.314;2022-07-23T15:22:00;25.71;44.15
68804;SHT31;55787;52.678;13.314;2022-07-23T15:24:27;25.71;43.72
68804;SHT31;55787;52.678;13.314;2022-07-23T15:26:54;25.91;42.98
68804;SHT31;55787;52.678;13.314;2022-07-23T15:29:20;25.70;44.12
68804;SHT31;55787;52.678;13.314;2022-07-23T15:31:47;25.56;46.33
68804;SHT31;55787;52.678;13.314;2022-07-23T15:34:23;25.67;42.80
68804;SHT31;55787;52.678;13.314;2022-07-23T15:36:49;25.74;40.78
68804;SHT31;55787;52.678;13.314;2022-07-23T15:39:18;25.96;43.18
68804;SHT31;55787;52.678;13.314;2022-07-23T15:41:44;26.19;43.23
68804;SHT31;55787;52.678;13.314;2022-07-23T15:44:13;26.16;39.97
68804;SHT31;55787;52.678;13.314;2022-07-23T15:46:56;26.16;41.65
68804;SHT31;55787;52.678;13.314;2022-07-23T15:49:22;26.09;41.40
68804;SHT31;55787;52.678;13.314;2022-07-23T15:51:49;26.04;41.69
68804;SHT31;55787;52.678;13.314;2022-07-23T15:54:16;25.91;42.77
68804;SHT31;55787;52.678;13.314;2022-07-23T15:56:43;25.57;41.78
68804;SHT31;55787;52.678;13.314;2022-07-23T15:59:10;25.27;45.08
68804;SHT31;55787;52.678;13.314;2022-07-23T16:01:37;25.05;43.48
68804;SHT31;55787;52.678;13.314;2022-07-23T16:04:04;24.86;44.26
68804;SHT31;55787;52.678;13.314;2022-07-23T16:06:35;24.87;44.50